sensor_id;sensor_type;location;lat;lon;timestamp;P1;durP1;ratioP1;P2;durP2;ratioP2
61389;SDS011;47260;48.274;19.814;2023-04-19T00:01:07;6.72;;;4.28;;
61389;SDS011;47260;48.274;19.814;2023-04-19T00:02:40;5.25;;;4.07;;
61389;SDS011;47260;48.274;19.814;2023-04-19T00:04:12;5.75;;;3.95;;
61389;SDS011;47260;48.274;19.814;2023-04-19T00:05:44;6.82;;;4.38;;
61389;SDS011;47260;48.274;19.814;2023-04-19T00:07:17;7.80;;;4.47;;
61389;SDS011;47260;48.274;19.814;2023-04-19T00:08:49;6.95;;;4.50;;
61389;SDS011;47260;48.274;19.814;2023-04-19T00:10:21;6.95;;;5.13;;
61389;SDS011;47260;48.274;19.814;2023-04-19T00:11:52;5.97;;;4.15;;
61389;SDS011;47260;48.274;19.814;2023-04-19T00:13:23;5.10;;;4.15;;
61389;SDS011;47260;48.274;19.814;2023-04-19T00:14:55;6.70;;;4.50;;
61389;SDS011;47260;48.274;19.814;2023-04-19T00:16:26;6.05;;;4.32;;
61389;SDS011;47260;48.274;19.814;2023-04-19T00:17:58;7.55;;;4.40;;
61389;SDS011;47260;48.274;19.814;2023-04-19T00:19:31;7.25;;;5.03;;
61389;SDS011;47260;48.274;19.814;2023-04-19T00:21:04;6.50;;;4.30;;
61389;SDS011;47260;48.274;19.814;2023-04-19T00:22:35;7.57;;;4.80;;
61389;SDS011;47260;48.274;19.814;2023-04-19T00:24:06;7.95;;;4.80;;
61389;SDS011;47260;48.274;19.814;2023-04-19T00:25:38;10.00;;;5.75;;
61389;SDS011;47260;48.274;19.814;2023-04-19T00:27:10;6.85;;;5.38;;
61389;SDS011;47260;48.274;19.814;2023-04-19T00:28:42;10.45;;;6.00;;
61389;SDS011;47260;48.274;19.814;2023-04-19T00:30:14;11.18;;;7.32;;
61389;SDS011;47260;48.274;19.814;2023-04-19T00:31:46;11.10;;;7.22;;
61389;SDS011;47260;48.274;19.814;2023-04-19T00:33:17;14.52;;;7.55;;
61389;SDS011;47260;48.274;19.814;2023-04-19T00:34:50;12.98;;;8.63;;
61389;SDS011;47260;48.274;19.814;2023-04-19T00:36:22;14.57;;;9.30;;
61389;SDS011;47260;48.274;19.814;2023-04-19T00:37:54;12.85;;;7.50;;
61389;SDS011;47260;48.274;19.814;2023-04-19T00:39:25;10.27;;;6.65;;
61389;SDS011;47260;48.274;19.814;2023-04-19T00:40:57;11.77;;;6.93;;
61389;SDS011;47260;48.274;19.814;2023-04-19T00:42:30;10.55;;;6.57;;
61389;SDS011;47260;48.274;19.814;2023-04-19T00:44:01;11.57;;;7.40;;
61389;SDS011;47260;48.274;19.814;2023-04-19T00:45:33;8.77;;;6.97;;
61389;SDS011;47260;48.274;19.814;2023-04-19T00:47:06;13.75;;;7.80;;
61389;SDS011;47260;48.274;19.814;2023-04-19T00:48:37;12.82;;;8.32;;
61389;SDS011;47260;48.274;19.814;2023-04-19T00:50:11;13.10;;;7.55;;
61389;SDS011;47260;48.274;19.814;2023-04-19T00:51:43;7.82;;;6.47;;
61389;SDS011;47260;48.274;19.814;2023-04-19T00:53:15;8.65;;;6.43;;
61389;SDS011;47260;48.274;19.814;2023-04-19T00:54:46;9.10;;;6.63;;
61389;SDS011;47260;48.274;19.814;2023-04-19T00:56:19;9.63;;;7.43;;
61389;SDS011;47260;48.274;19.814;2023-04-19T00:57:55;10.43;;;7.25;;
61389;SDS011;47260;48.274;19.814;2023-04-19T00:59:28;12.95;;;7.70;;
61389;SDS011;47260;48.274;19.814;2023-04-19T01:01:01;11.43;;;8.48;;
61389;SDS011;47260;48.274;19.814;2023-04-19T01:02:32;11.48;;;7.25;;
61389;SDS011;47260;48.274;19.814;2023-04-19T01:04:04;10.68;;;6.10;;
61389;SDS011;47260;48.274;19.814;2023-04-19T01:05:37;10.60;;;7.65;;
61389;SDS011;47260;48.274;19.814;2023-04-19T01:07:09;12.52;;;8.18;;
61389;SDS011;47260;48.274;19.814;2023-04-19T01:08:41;13.57;;;8.18;;
61389;SDS011;47260;48.274;19.814;2023-04-19T01:10:13;11.88;;;8.73;;
61389;SDS011;47260;48.274;19.814;2023-04-19T01:11:45;13.25;;;8.88;;
61389;SDS011;47260;48.274;19.814;2023-04-19T01:13:15;11.68;;;8.50;;
61389;SDS011;47260;48.274;19.814;2023-04-19T01:14:47;9.73;;;7.22;;
61389;SDS011;47260;48.274;19.814;2023-04-19T01:16:21;10.00;;;6.35;;
61389;SDS011;47260;48.274;19.814;2023-04-19T01:17:54;11.40;;;6.55;;
61389;SDS011;47260;48.274;19.814;2023-04-19T01:19:26;9.38;;;6.47;;
61389;SDS011;47260;48.274;19.814;2023-04-19T01:21:00;9.73;;;6.20;;
61389;SDS011;47260;48.274;19.814;2023-04-19T01:22:33;8.93;;;6.45;;
61389;SDS011;47260;48.274;19.814;2023-04-19T01:24:08;10.00;;;6.15;;
61389;SDS011;47260;48.274;19.814;2023-04-19T01:25:39;11.02;;;7.80;;
61389;SDS011;47260;48.274;19.814;2023-04-19T01:27:11;10.80;;;7.47;;
61389;SDS011;47260;48.274;19.814;2023-04-19T01:28:43;11.77;;;8.13;;
61389;SDS011;47260;48.274;19.814;2023-04-19T01:30:15;14.45;;;8.52;;
61389;SDS011;47260;48.274;19.814;2023-04-19T01:31:46;13.30;;;8.57;;
61389;SDS011;47260;48.274;19.814;2023-04-19T01:33:22;14.68;;;8.68;;
61389;SDS011;47260;48.274;19.814;2023-04-19T01:34:54;17.48;;;9.77;;
61389;SDS011;47260;48.274;19.814;2023-04-19T01:36:26;11.90;;;8.10;;
61389;SDS011;47260;48.274;19.814;2023-04-19T01:37:59;11.70;;;7.43;;
61389;SDS011;47260;48.274;19.814;2023-04-19T01:39:31;8.65;;;6.55;;
61389;SDS011;47260;48.274;19.814;2023-04-19T01:41:02;10.63;;;7.90;;
61389;SDS011;47260;48.274;19.814;2023-04-19T01:42:35;8.77;;;6.97;;
61389;SDS011;47260;48.274;19.814;2023-04-19T01:44:06;10.68;;;7.80;;
61389;SDS011;47260;48.274;19.814;2023-04-19T01:45:38;10.35;;;6.57;;
61389;SDS011;47260;48.274;19.814;2023-04-19T01:47:10;12.02;;;7.70;;
61389;SDS011;47260;48.274;19.814;2023-04-19T01:48:41;9.98;;;7.35;;
61389;SDS011;47260;48.274;19.814;2023-04-19T01:50:12;11.40;;;8.02;;
61389;SDS011;47260;48.274;19.814;2023-04-19T01:51:45;12.70;;;7.63;;
61389;SDS011;47260;48.274;19.814;2023-04-19T01:53:17;9.95;;;7.85;;
61389;SDS011;47260;48.274;19.814;2023-04-19T01:54:49;12.00;;;7.30;;
61389;SDS011;47260;48.274;19.814;2023-04-19T01:56:21;12.60;;;8.55;;
61389;SDS011;47260;48.274;19.814;2023-04-19T01:57:53;13.02;;;8.18;;
61389;SDS011;47260;48.274;19.814;2023-04-19T01:59:25;12.38;;;7.90;;
61389;SDS011;47260;48.274;19.814;2023-04-19T02:00:56;12.57;;;8.15;;
61389;SDS011;47260;48.274;19.814;2023-04-19T02:02:27;14.30;;;8.25;;
61389;SDS011;47260;48.274;19.814;2023-04-19T02:03:59;12.43;;;8.60;;
61389;SDS011;47260;48.274;19.814;2023-04-19T02:05:32;14.20;;;8.52;;
61389;SDS011;47260;48.274;19.814;2023-04-19T02:07:04;11.10;;;8.75;;
61389;SDS011;47260;48.274;19.814;2023-04-19T02:08:37;14.15;;;8.15;;
61389;SDS011;47260;48.274;19.814;2023-04-19T02:10:09;9.52;;;7.10;;
61389;SDS011;47260;48.274;19.814;2023-04-19T02:11:41;9.75;;;7.30;;
61389;SDS011;47260;48.274;19.814;2023-04-19T02:13:13;11.02;;;7.90;;
61389;SDS011;47260;48.274;19.814;2023-04-19T02:14:45;12.52;;;7.60;;
61389;SDS011;47260;48.274;19.814;2023-04-19T02:16:17;12.38;;;8.75;;
61389;SDS011;47260;48.274;19.814;2023-04-19T02:17:48;13.32;;;7.88;;
61389;SDS011;47260;48.274;19.814;2023-04-19T02:19:20;15.73;;;7.10;;
61389;SDS011;47260;48.274;19.814;2023-04-19T02:20:53;15.13;;;7.82;;
61389;SDS011;47260;48.274;19.814;2023-04-19T02:22:24;11.02;;;6.72;;
61389;SDS011;47260;48.274;19.814;2023-04-19T02:23:58;9.98;;;6.65;;
61389;SDS011;47260;48.274;19.814;2023-04-19T02:25:30;11.05;;;6.97;;
61389;SDS011;47260;48.274;19.814;2023-04-19T02:27:02;11.70;;;7.28;;
61389;SDS011;47260;48.274;19.814;2023-04-19T02:28:36;11.80;;;6.80;;
61389;SDS011;47260;48.274;19.814;2023-04-19T02:30:09;10.90;;;6.85;;
61389;SDS011;47260;48.274;19.814;2023-04-19T02:31:41;12.15;;;6.00;;
61389;SDS011;47260;48.274;19.814;2023-04-19T02:33:14;12.75;;;7.25;;
61389;SDS011;47260;48.274;19.814;2023-04-19T02:34:46;12.52;;;8.50;;
61389;SDS011;47260;48.274;19.814;2023-04-19T02:36:18;17.92;;;7.63;;
61389;SDS011;47260;48.274;19.814;2023-04-19T02:37:49;11.18;;;7.93;;
61389;SDS011;47260;48.274;19.814;2023-04-19T02:39:23;11.65;;;6.63;;
61389;SDS011;47260;48.274;19.814;2023-04-19T02:40:55;12.10;;;6.93;;
61389;SDS011;47260;48.274;19.814;2023-04-19T02:42:26;10.63;;;7.80;;
61389;SDS011;47260;48.274;19.814;2023-04-19T02:43:57;8.65;;;7.50;;
61389;SDS011;47260;48.274;19.814;2023-04-19T02:45:29;9.57;;;6.45;;
61389;SDS011;47260;48.274;19.814;2023-04-19T02:46:59;10.07;;;6.85;;
61389;SDS011;47260;48.274;19.814;2023-04-19T02:48:31;12.02;;;7.00;;
61389;SDS011;47260;48.274;19.814;2023-04-19T02:50:03;11.77;;;6.78;;
61389;SDS011;47260;48.274;19.814;2023-04-19T02:51:39;13.35;;;8.25;;
61389;SDS011;47260;48.274;19.814;2023-04-19T02:53:10;11.35;;;7.28;;
61389;SDS011;47260;48.274;19.814;2023-04-19T02:54:43;11.23;;;7.40;;
61389;SDS011;47260;48.274;19.814;2023-04-19T02:56:15;13.82;;;7.57;;
61389;SDS011;47260;48.274;19.814;2023-04-19T02:57:46;13.18;;;7.60;;
61389;SDS011;47260;48.274;19.814;2023-04-19T02:59:17;12.68;;;7.55;;
61389;SDS011;47260;48.274;19.814;2023-04-19T03:00:49;11.63;;;6.90;;
61389;SDS011;47260;48.274;19.814;2023-04-19T03:02:24;15.77;;;7.47;;
61389;SDS011;47260;48.274;19.814;2023-04-19T03:03:56;11.93;;;8.80;;
61389;SDS011;47260;48.274;19.814;2023-04-19T03:05:28;8.95;;;6.68;;
61389;SDS011;47260;48.274;19.814;2023-04-19T03:07:00;10.93;;;7.07;;
61389;SDS011;47260;48.274;19.814;2023-04-19T03:08:32;11.02;;;7.90;;
61389;SDS011;47260;48.274;19.814;2023-04-19T03:10:05;9.90;;;7.32;;
61389;SDS011;47260;48.274;19.814;2023-04-19T03:11:38;11.98;;;7.55;;
61389;SDS011;47260;48.274;19.814;2023-04-19T03:13:10;11.75;;;6.93;;
61389;SDS011;47260;48.274;19.814;2023-04-19T03:14:41;11.25;;;6.30;;
61389;SDS011;47260;48.274;19.814;2023-04-19T03:16:13;9.02;;;6.10;;
61389;SDS011;47260;48.274;19.814;2023-04-19T03:17:46;10.07;;;6.28;;
61389;SDS011;47260;48.274;19.814;2023-04-19T03:19:18;12.00;;;7.15;;
61389;SDS011;47260;48.274;19.814;2023-04-19T03:20:54;9.43;;;6.70;;
61389;SDS011;47260;48.274;19.814;2023-04-19T03:22:26;13.55;;;6.38;;
61389;SDS011;47260;48.274;19.814;2023-04-19T03:23:58;10.43;;;6.85;;
61389;SDS011;47260;48.274;19.814;2023-04-19T03:25:31;12.50;;;6.60;;
61389;SDS011;47260;48.274;19.814;2023-04-19T03:27:17;10.40;;;6.57;;
61389;SDS011;47260;48.274;19.814;2023-04-19T03:28:52;8.02;;;6.18;;
61389;SDS011;47260;48.274;19.814;2023-04-19T03:30:43;8.35;;;5.85;;
61389;SDS011;47260;48.274;19.814;2023-04-19T03:32:15;9.45;;;7.15;;
61389;SDS011;47260;48.274;19.814;2023-04-19T03:33:46;11.68;;;7.30;;
61389;SDS011;47260;48.274;19.814;2023-04-19T03:35:18;7.32;;;6.05;;
61389;SDS011;47260;48.274;19.814;2023-04-19T03:36:50;7.75;;;6.03;;
61389;SDS011;47260;48.274;19.814;2023-04-19T03:38:22;8.05;;;6.00;;
61389;SDS011;47260;48.274;19.814;2023-04-19T03:39:55;7.85;;;6.07;;
61389;SDS011;47260;48.274;19.814;2023-04-19T03:41:34;8.63;;;5.97;;
61389;SDS011;47260;48.274;19.814;2023-04-19T03:43:26;8.30;;;6.05;;
61389;SDS011;47260;48.274;19.814;2023-04-19T03:44:58;8.13;;;5.75;;
61389;SDS011;47260;48.274;19.814;2023-04-19T03:46:31;10.27;;;5.93;;
61389;SDS011;47260;48.274;19.814;2023-04-19T03:48:03;8.95;;;6.00;;
61389;SDS011;47260;48.274;19.814;2023-04-19T03:49:35;10.38;;;6.38;;
61389;SDS011;47260;48.274;19.814;2023-04-19T03:51:08;10.52;;;5.95;;
61389;SDS011;47260;48.274;19.814;2023-04-19T03:52:40;9.43;;;6.60;;
61389;SDS011;47260;48.274;19.814;2023-04-19T03:54:14;9.25;;;6.40;;
61389;SDS011;47260;48.274;19.814;2023-04-19T03:55:45;9.43;;;6.70;;
61389;SDS011;47260;48.274;19.814;2023-04-19T03:57:18;9.02;;;6.03;;
61389;SDS011;47260;48.274;19.814;2023-04-19T03:58:51;8.65;;;5.53;;
61389;SDS011;47260;48.274;19.814;2023-04-19T04:00:23;8.63;;;6.57;;
61389;SDS011;47260;48.274;19.814;2023-04-19T04:02:01;10.90;;;6.70;;
61389;SDS011;47260;48.274;19.814;2023-04-19T04:03:33;8.50;;;6.63;;
61389;SDS011;47260;48.274;19.814;2023-04-19T04:05:07;11.27;;;7.32;;
61389;SDS011;47260;48.274;19.814;2023-04-19T04:06:40;11.40;;;6.53;;
61389;SDS011;47260;48.274;19.814;2023-04-19T04:08:11;9.70;;;6.00;;
61389;SDS011;47260;48.274;19.814;2023-04-19T04:09:44;9.15;;;6.32;;
61389;SDS011;47260;48.274;19.814;2023-04-19T04:11:17;11.40;;;6.78;;
61389;SDS011;47260;48.274;19.814;2023-04-19T04:12:53;8.90;;;6.10;;
61389;SDS011;47260;48.274;19.814;2023-04-19T04:14:31;9.30;;;6.67;;
61389;SDS011;47260;48.274;19.814;2023-04-19T04:16:04;8.45;;;6.55;;
61389;SDS011;47260;48.274;19.814;2023-04-19T04:17:37;11.07;;;7.28;;
61389;SDS011;47260;48.274;19.814;2023-04-19T04:19:10;8.45;;;6.10;;
61389;SDS011;47260;48.274;19.814;2023-04-19T04:20:44;10.57;;;7.45;;
61389;SDS011;47260;48.274;19.814;2023-04-19T04:22:17;11.93;;;7.32;;
61389;SDS011;47260;48.274;19.814;2023-04-19T04:23:49;15.00;;;9.23;;
61389;SDS011;47260;48.274;19.814;2023-04-19T04:25:31;15.93;;;9.02;;
61389;SDS011;47260;48.274;19.814;2023-04-19T04:27:08;12.25;;;8.43;;
61389;SDS011;47260;48.274;19.814;2023-04-19T04:28:46;12.13;;;8.27;;
61389;SDS011;47260;48.274;19.814;2023-04-19T04:30:18;9.48;;;7.03;;
61389;SDS011;47260;48.274;19.814;2023-04-19T04:31:50;9.27;;;7.18;;
61389;SDS011;47260;48.274;19.814;2023-04-19T04:33:26;10.45;;;7.03;;
61389;SDS011;47260;48.274;19.814;2023-04-19T04:34:58;9.48;;;7.10;;
61389;SDS011;47260;48.274;19.814;2023-04-19T04:36:42;12.90;;;7.00;;
61389;SDS011;47260;48.274;19.814;2023-04-19T04:38:13;11.93;;;7.53;;
61389;SDS011;47260;48.274;19.814;2023-04-19T04:39:46;11.15;;;7.53;;
61389;SDS011;47260;48.274;19.814;2023-04-19T04:41:18;15.65;;;7.13;;
61389;SDS011;47260;48.274;19.814;2023-04-19T04:42:51;15.90;;;9.38;;
61389;SDS011;47260;48.274;19.814;2023-04-19T04:44:24;15.93;;;8.80;;
61389;SDS011;47260;48.274;19.814;2023-04-19T04:45:56;13.02;;;8.05;;
61389;SDS011;47260;48.274;19.814;2023-04-19T04:47:31;13.82;;;7.10;;
61389;SDS011;47260;48.274;19.814;2023-04-19T04:49:06;9.52;;;6.13;;
61389;SDS011;47260;48.274;19.814;2023-04-19T04:50:38;10.32;;;6.68;;
61389;SDS011;47260;48.274;19.814;2023-04-19T04:52:10;12.43;;;8.35;;
61389;SDS011;47260;48.274;19.814;2023-04-19T04:53:52;11.88;;;8.20;;
61389;SDS011;47260;48.274;19.814;2023-04-19T04:55:24;14.07;;;8.90;;
61389;SDS011;47260;48.274;19.814;2023-04-19T04:56:57;18.63;;;9.85;;
61389;SDS011;47260;48.274;19.814;2023-04-19T04:58:30;20.83;;;12.77;;
61389;SDS011;47260;48.274;19.814;2023-04-19T05:00:15;24.50;;;15.80;;
61389;SDS011;47260;48.274;19.814;2023-04-19T05:01:58;26.40;;;15.85;;
61389;SDS011;47260;48.274;19.814;2023-04-19T05:03:30;25.45;;;16.13;;
61389;SDS011;47260;48.274;19.814;2023-04-19T05:05:05;27.60;;;15.73;;
61389;SDS011;47260;48.274;19.814;2023-04-19T05:06:40;20.70;;;13.50;;
61389;SDS011;47260;48.274;19.814;2023-04-19T05:08:14;10.13;;;7.72;;
61389;SDS011;47260;48.274;19.814;2023-04-19T05:09:46;11.02;;;7.57;;
61389;SDS011;47260;48.274;19.814;2023-04-19T05:11:22;11.82;;;7.38;;
61389;SDS011;47260;48.274;19.814;2023-04-19T05:12:55;13.90;;;8.32;;
61389;SDS011;47260;48.274;19.814;2023-04-19T05:14:27;13.27;;;9.35;;
61389;SDS011;47260;48.274;19.814;2023-04-19T05:16:00;15.15;;;8.98;;
61389;SDS011;47260;48.274;19.814;2023-04-19T05:17:32;18.17;;;9.10;;
61389;SDS011;47260;48.274;19.814;2023-04-19T05:19:05;19.50;;;9.80;;
61389;SDS011;47260;48.274;19.814;2023-04-19T05:20:42;20.48;;;10.35;;
61389;SDS011;47260;48.274;19.814;2023-04-19T05:22:22;22.23;;;10.80;;
61389;SDS011;47260;48.274;19.814;2023-04-19T05:23:54;18.63;;;10.15;;
61389;SDS011;47260;48.274;19.814;2023-04-19T05:25:26;13.32;;;8.18;;
61389;SDS011;47260;48.274;19.814;2023-04-19T05:26:59;15.65;;;9.23;;
61389;SDS011;47260;48.274;19.814;2023-04-19T05:28:31;17.10;;;8.93;;
61389;SDS011;47260;48.274;19.814;2023-04-19T05:30:17;13.40;;;8.27;;
61389;SDS011;47260;48.274;19.814;2023-04-19T05:31:50;11.20;;;8.45;;
61389;SDS011;47260;48.274;19.814;2023-04-19T05:33:29;12.32;;;7.63;;
61389;SDS011;47260;48.274;19.814;2023-04-19T05:35:01;13.15;;;7.72;;
61389;SDS011;47260;48.274;19.814;2023-04-19T05:36:33;12.00;;;7.32;;
61389;SDS011;47260;48.274;19.814;2023-04-19T05:38:05;8.80;;;7.15;;
61389;SDS011;47260;48.274;19.814;2023-04-19T05:39:36;8.38;;;6.43;;
61389;SDS011;47260;48.274;19.814;2023-04-19T05:41:08;12.98;;;8.98;;
61389;SDS011;47260;48.274;19.814;2023-04-19T05:42:40;8.73;;;7.50;;
61389;SDS011;47260;48.274;19.814;2023-04-19T05:44:13;10.88;;;7.20;;
61389;SDS011;47260;48.274;19.814;2023-04-19T05:45:45;9.02;;;6.88;;
61389;SDS011;47260;48.274;19.814;2023-04-19T05:47:18;10.52;;;7.75;;
61389;SDS011;47260;48.274;19.814;2023-04-19T05:49:19;8.52;;;7.18;;
61389;SDS011;47260;48.274;19.814;2023-04-19T05:51:05;9.93;;;6.90;;
61389;SDS011;47260;48.274;19.814;2023-04-19T05:52:50;9.20;;;6.80;;
61389;SDS011;47260;48.274;19.814;2023-04-19T05:54:22;11.45;;;7.40;;
61389;SDS011;47260;48.274;19.814;2023-04-19T05:55:54;9.07;;;7.05;;
61389;SDS011;47260;48.274;19.814;2023-04-19T05:57:26;10.45;;;7.00;;
61389;SDS011;47260;48.274;19.814;2023-04-19T05:58:57;11.68;;;8.38;;
61389;SDS011;47260;48.274;19.814;2023-04-19T06:00:30;14.88;;;9.05;;
61389;SDS011;47260;48.274;19.814;2023-04-19T06:02:10;11.02;;;7.95;;
61389;SDS011;47260;48.274;19.814;2023-04-19T06:03:43;17.33;;;10.75;;
61389;SDS011;47260;48.274;19.814;2023-04-19T06:05:15;24.05;;;14.15;;
61389;SDS011;47260;48.274;19.814;2023-04-19T06:06:47;19.33;;;13.88;;
61389;SDS011;47260;48.274;19.814;2023-04-19T06:08:18;23.48;;;14.25;;
61389;SDS011;47260;48.274;19.814;2023-04-19T06:09:50;28.05;;;18.13;;
61389;SDS011;47260;48.274;19.814;2023-04-19T06:11:22;20.70;;;13.07;;
61389;SDS011;47260;48.274;19.814;2023-04-19T06:12:54;20.00;;;11.95;;
61389;SDS011;47260;48.274;19.814;2023-04-19T06:14:25;24.00;;;14.20;;
61389;SDS011;47260;48.274;19.814;2023-04-19T06:15:58;22.63;;;13.02;;
61389;SDS011;47260;48.274;19.814;2023-04-19T06:17:30;31.95;;;17.23;;
61389;SDS011;47260;48.274;19.814;2023-04-19T06:19:03;35.95;;;19.90;;
61389;SDS011;47260;48.274;19.814;2023-04-19T06:20:35;55.90;;;28.17;;
61389;SDS011;47260;48.274;19.814;2023-04-19T06:22:07;63.95;;;30.52;;
61389;SDS011;47260;48.274;19.814;2023-04-19T06:23:39;61.08;;;29.65;;
61389;SDS011;47260;48.274;19.814;2023-04-19T06:25:10;68.45;;;32.03;;
61389;SDS011;47260;48.274;19.814;2023-04-19T06:26:42;75.32;;;34.15;;
61389;SDS011;47260;48.274;19.814;2023-04-19T06:28:14;61.70;;;32.13;;
61389;SDS011;47260;48.274;19.814;2023-04-19T06:29:45;52.03;;;27.50;;
61389;SDS011;47260;48.274;19.814;2023-04-19T06:31:17;28.70;;;15.93;;
61389;SDS011;47260;48.274;19.814;2023-04-19T06:32:49;20.92;;;13.02;;
61389;SDS011;47260;48.274;19.814;2023-04-19T06:34:22;15.38;;;9.38;;
61389;SDS011;47260;48.274;19.814;2023-04-19T06:35:54;11.30;;;8.52;;
61389;SDS011;47260;48.274;19.814;2023-04-19T06:37:25;13.00;;;8.48;;
61389;SDS011;47260;48.274;19.814;2023-04-19T06:38:57;11.95;;;7.75;;
61389;SDS011;47260;48.274;19.814;2023-04-19T06:40:29;13.77;;;8.43;;
61389;SDS011;47260;48.274;19.814;2023-04-19T06:42:00;15.20;;;9.77;;
61389;SDS011;47260;48.274;19.814;2023-04-19T06:43:33;24.08;;;11.65;;
61389;SDS011;47260;48.274;19.814;2023-04-19T06:45:05;20.98;;;11.52;;
61389;SDS011;47260;48.274;19.814;2023-04-19T06:46:37;16.33;;;10.98;;
61389;SDS011;47260;48.274;19.814;2023-04-19T06:48:08;18.63;;;12.15;;
61389;SDS011;47260;48.274;19.814;2023-04-19T06:49:41;23.58;;;15.10;;
61389;SDS011;47260;48.274;19.814;2023-04-19T06:51:13;25.73;;;17.17;;
61389;SDS011;47260;48.274;19.814;2023-04-19T06:52:45;23.48;;;16.00;;
61389;SDS011;47260;48.274;19.814;2023-04-19T06:54:16;18.13;;;13.93;;
61389;SDS011;47260;48.274;19.814;2023-04-19T06:55:48;21.45;;;12.13;;
61389;SDS011;47260;48.274;19.814;2023-04-19T06:57:23;21.73;;;13.23;;
61389;SDS011;47260;48.274;19.814;2023-04-19T06:58:55;20.45;;;13.52;;
61389;SDS011;47260;48.274;19.814;2023-04-19T07:00:27;20.15;;;11.55;;
61389;SDS011;47260;48.274;19.814;2023-04-19T07:01:58;15.80;;;10.75;;
61389;SDS011;47260;48.274;19.814;2023-04-19T07:03:30;13.20;;;9.38;;
61389;SDS011;47260;48.274;19.814;2023-04-19T07:05:04;16.17;;;10.60;;
61389;SDS011;47260;48.274;19.814;2023-04-19T07:06:37;14.85;;;10.45;;
61389;SDS011;47260;48.274;19.814;2023-04-19T07:08:09;13.65;;;9.13;;
61389;SDS011;47260;48.274;19.814;2023-04-19T07:09:41;9.93;;;8.65;;
61389;SDS011;47260;48.274;19.814;2023-04-19T07:11:13;14.93;;;9.50;;
61389;SDS011;47260;48.274;19.814;2023-04-19T07:12:44;15.13;;;10.25;;
61389;SDS011;47260;48.274;19.814;2023-04-19T07:14:16;13.32;;;9.38;;
61389;SDS011;47260;48.274;19.814;2023-04-19T07:15:48;15.55;;;10.48;;
61389;SDS011;47260;48.274;19.814;2023-04-19T07:17:20;15.27;;;9.93;;
61389;SDS011;47260;48.274;19.814;2023-04-19T07:18:51;19.15;;;10.95;;
61389;SDS011;47260;48.274;19.814;2023-04-19T07:20:25;14.73;;;10.65;;
61389;SDS011;47260;48.274;19.814;2023-04-19T07:21:56;12.38;;;7.93;;
61389;SDS011;47260;48.274;19.814;2023-04-19T07:23:28;13.90;;;9.30;;
61389;SDS011;47260;48.274;19.814;2023-04-19T07:25:00;12.52;;;8.90;;
61389;SDS011;47260;48.274;19.814;2023-04-19T07:26:32;15.95;;;9.20;;
61389;SDS011;47260;48.274;19.814;2023-04-19T07:28:04;12.43;;;9.88;;
61389;SDS011;47260;48.274;19.814;2023-04-19T07:29:36;16.60;;;11.20;;
61389;SDS011;47260;48.274;19.814;2023-04-19T07:31:13;14.10;;;9.93;;
61389;SDS011;47260;48.274;19.814;2023-04-19T07:32:45;13.38;;;9.40;;
61389;SDS011;47260;48.274;19.814;2023-04-19T07:34:17;13.68;;;9.27;;
61389;SDS011;47260;48.274;19.814;2023-04-19T07:35:50;13.25;;;8.85;;
61389;SDS011;47260;48.274;19.814;2023-04-19T07:37:22;9.55;;;7.68;;
61389;SDS011;47260;48.274;19.814;2023-04-19T07:38:53;10.00;;;8.45;;
61389;SDS011;47260;48.274;19.814;2023-04-19T07:40:25;11.20;;;7.25;;
61389;SDS011;47260;48.274;19.814;2023-04-19T07:41:57;10.68;;;6.68;;
61389;SDS011;47260;48.274;19.814;2023-04-19T07:43:29;10.05;;;6.55;;
61389;SDS011;47260;48.274;19.814;2023-04-19T07:45:01;10.80;;;6.80;;
61389;SDS011;47260;48.274;19.814;2023-04-19T07:46:33;6.22;;;5.50;;
61389;SDS011;47260;48.274;19.814;2023-04-19T07:48:05;7.82;;;5.45;;
61389;SDS011;47260;48.274;19.814;2023-04-19T07:49:36;6.72;;;5.65;;
61389;SDS011;47260;48.274;19.814;2023-04-19T07:51:10;9.35;;;6.07;;
61389;SDS011;47260;48.274;19.814;2023-04-19T07:52:42;9.13;;;6.10;;
61389;SDS011;47260;48.274;19.814;2023-04-19T07:54:14;8.05;;;6.00;;
61389;SDS011;47260;48.274;19.814;2023-04-19T07:55:49;8.27;;;6.07;;
61389;SDS011;47260;48.274;19.814;2023-04-19T07:57:20;7.00;;;5.97;;
61389;SDS011;47260;48.274;19.814;2023-04-19T07:58:52;7.43;;;6.22;;
61389;SDS011;47260;48.274;19.814;2023-04-19T08:00:24;6.15;;;5.03;;
61389;SDS011;47260;48.274;19.814;2023-04-19T08:01:56;6.30;;;5.20;;
61389;SDS011;47260;48.274;19.814;2023-04-19T08:03:27;7.50;;;5.57;;
61389;SDS011;47260;48.274;19.814;2023-04-19T08:04:59;7.68;;;5.35;;
61389;SDS011;47260;48.274;19.814;2023-04-19T08:06:32;7.30;;;5.55;;
61389;SDS011;47260;48.274;19.814;2023-04-19T08:08:04;6.45;;;5.10;;
61389;SDS011;47260;48.274;19.814;2023-04-19T08:09:36;6.90;;;5.10;;
61389;SDS011;47260;48.274;19.814;2023-04-19T08:11:08;7.35;;;5.60;;
61389;SDS011;47260;48.274;19.814;2023-04-19T08:12:39;7.55;;;5.30;;
61389;SDS011;47260;48.274;19.814;2023-04-19T08:14:11;9.32;;;5.32;;
61389;SDS011;47260;48.274;19.814;2023-04-19T08:15:43;8.32;;;5.90;;
61389;SDS011;47260;48.274;19.814;2023-04-19T08:17:14;8.27;;;5.88;;
61389;SDS011;47260;48.274;19.814;2023-04-19T08:18:50;7.03;;;5.05;;
61389;SDS011;47260;48.274;19.814;2023-04-19T08:20:21;8.52;;;5.88;;
61389;SDS011;47260;48.274;19.814;2023-04-19T08:21:54;8.40;;;5.72;;
61389;SDS011;47260;48.274;19.814;2023-04-19T08:23:26;10.27;;;6.70;;
61389;SDS011;47260;48.274;19.814;2023-04-19T08:24:58;6.65;;;5.90;;
61389;SDS011;47260;48.274;19.814;2023-04-19T08:26:30;7.47;;;6.03;;
61389;SDS011;47260;48.274;19.814;2023-04-19T08:28:01;7.35;;;5.93;;
61389;SDS011;47260;48.274;19.814;2023-04-19T08:29:33;8.30;;;5.78;;
61389;SDS011;47260;48.274;19.814;2023-04-19T08:31:05;8.00;;;5.50;;
61389;SDS011;47260;48.274;19.814;2023-04-19T08:32:37;6.43;;;5.82;;
61389;SDS011;47260;48.274;19.814;2023-04-19T08:34:09;6.40;;;5.53;;
61389;SDS011;47260;48.274;19.814;2023-04-19T08:35:40;9.02;;;6.70;;
61389;SDS011;47260;48.274;19.814;2023-04-19T08:37:15;9.75;;;7.18;;
61389;SDS011;47260;48.274;19.814;2023-04-19T08:38:50;8.55;;;5.53;;
61389;SDS011;47260;48.274;19.814;2023-04-19T08:40:21;5.53;;;5.03;;
61389;SDS011;47260;48.274;19.814;2023-04-19T08:41:54;5.85;;;5.10;;
61389;SDS011;47260;48.274;19.814;2023-04-19T08:43:27;7.40;;;5.50;;
61389;SDS011;47260;48.274;19.814;2023-04-19T08:45:03;6.85;;;5.75;;
61389;SDS011;47260;48.274;19.814;2023-04-19T08:46:35;6.30;;;5.70;;
61389;SDS011;47260;48.274;19.814;2023-04-19T08:48:07;6.88;;;6.07;;
61389;SDS011;47260;48.274;19.814;2023-04-19T08:49:40;9.50;;;5.93;;
61389;SDS011;47260;48.274;19.814;2023-04-19T08:51:13;6.28;;;4.80;;
61389;SDS011;47260;48.274;19.814;2023-04-19T08:52:48;9.40;;;6.20;;
61389;SDS011;47260;48.274;19.814;2023-04-19T08:54:20;6.38;;;5.63;;
61389;SDS011;47260;48.274;19.814;2023-04-19T08:55:52;8.00;;;5.47;;
61389;SDS011;47260;48.274;19.814;2023-04-19T08:57:30;8.30;;;5.50;;
61389;SDS011;47260;48.274;19.814;2023-04-19T08:59:02;7.47;;;5.70;;
61389;SDS011;47260;48.274;19.814;2023-04-19T09:00:34;6.97;;;5.60;;
61389;SDS011;47260;48.274;19.814;2023-04-19T09:02:09;11.00;;;5.43;;
61389;SDS011;47260;48.274;19.814;2023-04-19T09:03:41;8.45;;;5.82;;
61389;SDS011;47260;48.274;19.814;2023-04-19T09:05:15;8.98;;;5.40;;